Decoded Metar for KEVV (EVANSVILLE in IN, USA) (IATA:EVV) | Meteo·Mobile Aviation Weather
aviador You're here:

KEVV Decoded Metar

EVANSVILLE in IN, USA
Report Time2018-11-12 22:54:00
UTC Time2018-11-12 23:20:45
Flight Rules vfr VFR
Wind350° at 08 kt
W.Decomp.*RWY 36: 7.9 kt HW 1 kt LCW
RWY 04: 5.5 kt HW 5.9 kt LCW
RWY 27: 1.0 kt HW 7.9 kt RCW
W.Rank350° ranks 18
Current wind is above 350° avg. (6.9)
Visibility9999 m
Phenomena:Light Rain
Clouds:Overcast 060 Hf
Expected CloudBase > 2,400 ft AGL from Temp-Dew spread
Ceiling6,000 ft
Temp05°C (ISA -9)
Dew Point-1°C (66% RH)
AAT0.0°C
QNH1023 hPa
Density Alt-991 ft
Elevation384 ft
Report Wrong Elevation
Raw Report
KEVV 122254Z 35008KT 10SM -RA OVC060 05/M01 A3020 RMK AO2 SLP228
P0000 T00501011 $=

Extra information for KEVV:More info

Metar Taf Metar & Taf Last 4 Metars F.Rules Stats Wind Profile Meteogram Temp Stats Airport Information Weather charts Add Link Nearby VenuesMetar ALERT Operation Metar Decoded Social comments

AIRNAV info for KEVV